createdAt,value
2022-10-16T00:14:14.780Z,956.39392
2022-10-16T00:29:17.296Z,613.34937
2022-10-16T00:44:19.638Z,334.96237
2022-10-16T00:59:22.110Z,148.17371
2022-10-16T01:14:24.393Z,23.34859
2022-10-16T01:29:26.695Z,0.89802
2022-10-16T01:44:29.079Z,0
2022-10-16T01:59:31.416Z,0
2022-10-16T02:14:33.705Z,0
2022-10-16T02:29:36.068Z,0
2022-10-16T02:44:38.296Z,0
2022-10-16T02:59:40.574Z,0
2022-10-16T03:14:42.885Z,0
2022-10-16T03:29:45.185Z,0
2022-10-16T03:44:47.447Z,0
2022-10-16T03:59:49.715Z,0
2022-10-16T04:14:52.084Z,0
2022-10-16T04:29:54.355Z,0
2022-10-16T04:44:56.806Z,0
2022-10-16T04:59:59.148Z,0
2022-10-16T05:15:01.410Z,0
2022-10-16T05:30:04.850Z,0
2022-10-16T05:45:08.858Z,0
2022-10-16T06:00:11.144Z,0
2022-10-16T06:15:13.721Z,0
2022-10-16T06:30:16.033Z,0
2022-10-16T06:45:18.495Z,0
2022-10-16T07:00:20.770Z,0
2022-10-16T07:15:23.087Z,0
2022-10-16T07:30:25.587Z,0
2022-10-16T07:45:27.826Z,0
2022-10-16T08:00:30.138Z,0
2022-10-16T08:15:32.688Z,0
2022-10-16T08:30:35.113Z,0
2022-10-16T08:45:37.457Z,0
2022-10-16T09:00:39.894Z,0
2022-10-16T09:15:42.191Z,0
2022-10-16T09:30:44.489Z,0
2022-10-16T09:45:46.800Z,0
2022-10-16T10:00:49.085Z,0
2022-10-16T10:15:51.361Z,0
2022-10-16T10:30:53.656Z,0
2022-10-16T10:45:56.977Z,0
2022-10-16T11:00:59.218Z,0
2022-10-16T11:16:01.386Z,0
2022-10-16T11:31:03.716Z,0
2022-10-16T11:46:07.841Z,0
2022-10-16T12:01:12.529Z,0
2022-10-16T12:16:14.796Z,0
2022-10-16T12:31:17.022Z,0
2022-10-16T12:46:19.220Z,0
2022-10-16T13:01:21.441Z,0
2022-10-16T13:16:23.659Z,0
2022-10-16T13:31:25.847Z,0
2022-10-16T13:46:28.171Z,3.59209
2022-10-16T14:01:32.678Z,97.88445
2022-10-16T14:16:35.419Z,458.8895
2022-10-16T14:31:37.619Z,798.34198
2022-10-16T14:46:39.832Z,1194.36987
2022-10-16T15:01:42.131Z,1951.40283
2022-10-16T15:16:44.319Z,4450.59961
2022-10-16T15:31:46.624Z,12283.15137
2022-10-16T15:46:48.865Z,15400.1875
2022-10-16T16:01:51.123Z,5230.08301
2022-10-16T16:16:53.374Z,11941.00488
2022-10-16T16:31:55.588Z,23709.58984
2022-10-16T16:46:57.969Z,14355.78711
2022-10-16T17:02:00.232Z,11216.30078
2022-10-16T17:17:02.495Z,17572.50391
2022-10-16T17:32:04.714Z,8687.46973
2022-10-16T17:47:06.948Z,5773.38672
2022-10-16T18:02:09.208Z,5662.03174
2022-10-16T18:17:11.486Z,5626.11084
2022-10-16T18:32:13.680Z,5565.94336
2022-10-16T18:47:15.877Z,5527.32812
2022-10-16T19:02:18.101Z,5340.53955
2022-10-16T19:17:20.588Z,5241.75732
2022-10-16T19:32:22.910Z,5351.31592
2022-10-16T19:47:25.251Z,5480.63135
2022-10-16T20:02:27.981Z,5639.58105
2022-10-16T20:17:30.882Z,5611.74268
2022-10-16T20:32:33.404Z,5669.21582
2022-10-16T20:47:35.727Z,5674.604
2022-10-16T21:02:38.008Z,5814.69531
2022-10-16T21:17:40.292Z,5902.70166
2022-10-16T21:32:42.678Z,6017.64844
2022-10-16T21:47:45.031Z,6033.81299
2022-10-16T22:02:47.407Z,6043.69141
2022-10-16T22:17:49.821Z,5856.90234
2022-10-16T22:32:52.218Z,5587.49561
2022-10-16T22:47:54.511Z,5219.30664
2022-10-16T23:02:56.964Z,4957.08398
2022-10-16T23:17:59.307Z,2705.7417
2022-10-16T23:33:01.588Z,1421.56958
2022-10-16T23:48:03.834Z,1273.39587
